Time;durP1;ratioP1;P1;durP2;ratioP2;P2;SDS_P1;SDS_P2;PMS_P1;PMS_P2;Temp;Humidity;BMP_temperature;BMP_pressure;BME280_temperature;BME280_humidity;BME280_pressure;Samples;Min_cycle;Max_cycle;Signal;HPM_P1;HPM_P2
2022/06/24 00:02:19;;;;;;;7.70;2.20;;;18.20;99.90;;;;;;4988179;28;20038;-86
2022/06/24 00:04:51;;;;;;;10.88;2.33;;;18.10;99.90;;;;;;4989148;28;20054;-85
2022/06/24 00:07:20;;;;;;;12.13;2.53;;;18.10;99.90;;;;;;4991245;28;20069;-85
2022/06/24 00:09:46;;;;;;;10.15;3.33;;;18.00;99.90;;;;;;4989600;28;20109;-85
2022/06/24 00:12:20;;;;;;;8.88;3.15;;;17.90;99.90;;;;;;4974809;28;20042;-85
2022/06/24 00:15:00;;;;;;;8.20;2.80;;;17.90;99.90;;;;;;4989465;28;20418;-85
2022/06/24 00:17:32;;;;;;;6.18;2.83;;;17.80;99.90;;;;;;4989162;28;20057;-86
2022/06/24 00:20:07;;;;;;;11.50;3.40;;;17.70;99.90;;;;;;4973351;28;20070;-83
2022/06/24 00:22:42;;;;;;;11.40;3.72;;;17.60;99.90;;;;;;5008550;28;20080;-85
2022/06/24 00:25:10;;;;;;;9.55;3.97;;;17.50;99.90;;;;;;5006004;28;20026;-86
2022/06/24 00:27:37;;;;;;;11.77;4.50;;;17.30;99.90;;;;;;4990007;28;20030;-87
2022/06/24 00:30:13;;;;;;;12.88;4.63;;;17.20;99.90;;;;;;5024521;28;20045;-88
2022/06/24 00:32:39;;;;;;;9.43;4.68;;;17.00;99.90;;;;;;4996724;28;20034;-87
2022/06/24 00:35:09;;;;;;;12.00;6.28;;;16.90;99.90;;;;;;4994106;28;20037;-89
2022/06/24 00:37:36;;;;;;;10.77;5.28;;;16.80;99.90;;;;;;4994916;28;20034;-90
2022/06/24 00:40:23;;;;;;;9.90;4.57;;;16.80;99.90;;;;;;4994074;28;20038;-90
2022/06/24 00:42:49;;;;;;;6.85;4.50;;;16.60;99.90;;;;;;4995014;28;20707;-90
2022/06/24 00:45:38;;;;;;;13.50;4.13;;;16.40;99.90;;;;;;4994453;28;20153;-90
2022/06/24 00:48:13;;;;;;;16.08;4.55;;;16.40;99.90;;;;;;4978107;28;20105;-90
2022/06/24 00:50:48;;;;;;;5.90;3.17;;;16.30;99.90;;;;;;4993891;28;20038;-89
2022/06/24 00:53:14;;;;;;;10.13;4.47;;;16.20;99.90;;;;;;4994837;28;20038;-90
2022/06/24 00:55:41;;;;;;;6.53;3.45;;;16.20;99.90;;;;;;4985472;28;20033;-90
2022/06/24 00:58:23;;;;;;;10.85;3.85;;;16.20;99.90;;;;;;5020495;28;20052;-89
2022/06/24 01:00:49;;;;;;;4.93;3.00;;;16.20;99.90;;;;;;5030228;28;20029;-89
2022/06/24 01:03:15;;;;;;;9.00;3.95;;;16.30;99.90;;;;;;5030928;28;20037;-90
2022/06/24 01:05:43;;;;;;;7.38;2.58;;;16.30;99.90;;;;;;5031407;28;20026;-90
2022/06/24 01:08:19;;;;;;;5.20;2.75;;;16.30;99.90;;;;;;5032258;28;20121;-90
2022/06/24 01:10:48;;;;;;;6.03;2.72;;;16.20;99.90;;;;;;5034024;28;20041;-90
2022/06/24 01:13:14;;;;;;;4.10;2.47;;;16.30;99.90;;;;;;5035280;28;20049;-91
2022/06/24 01:15:40;;;;;;;7.57;4.07;;;16.30;99.90;;;;;;5037119;28;20038;-91
2022/06/24 01:18:07;;;;;;;12.07;4.00;;;16.30;99.90;;;;;;5042690;28;20057;-92
2022/06/24 01:20:39;;;;;;;4.97;2.92;;;16.30;99.90;;;;;;5023702;28;20470;-91
2022/06/24 01:23:05;;;;;;;12.38;2.65;;;16.30;99.90;;;;;;5041814;28;20236;-92
2022/06/24 01:25:32;;;;;;;3.92;2.85;;;16.30;99.90;;;;;;5043614;28;20073;-91
2022/06/24 01:28:01;;;;;;;5.53;3.05;;;16.30;99.90;;;;;;5040740;28;20064;-91
2022/06/24 01:30:35;;;;;;;9.13;3.00;;;16.30;99.90;;;;;;5041658;28;20030;-91
2022/06/24 01:33:01;;;;;;;10.93;2.97;;;16.30;99.90;;;;;;5041215;28;20061;-92
2022/06/24 01:35:27;;;;;;;8.27;3.97;;;16.30;99.90;;;;;;5038696;28;20030;-90
2022/06/24 01:37:53;;;;;;;8.05;4.32;;;16.30;99.90;;;;;;5037012;28;20030;-91
2022/06/24 01:40:18;;;;;;;7.70;5.63;;;16.30;99.90;;;;;;5041133;28;20034;-91
2022/06/24 01:42:54;;;;;;;10.68;6.40;;;16.30;99.90;;;;;;5039357;28;20026;-92
2022/06/24 01:45:20;;;;;;;11.80;6.10;;;16.20;99.90;;;;;;5039609;28;20132;-91
2022/06/24 01:47:46;;;;;;;11.52;7.00;;;16.20;99.90;;;;;;5039559;28;20073;-90
2022/06/24 01:50:12;;;;;;;11.60;8.77;;;16.30;99.90;;;;;;5037468;28;20080;-90
2022/06/24 01:52:39;;;;;;;10.32;8.43;;;16.20;99.90;;;;;;5040572;28;20390;-91
2022/06/24 01:55:13;;;;;;;10.07;7.93;;;16.20;99.90;;;;;;5039537;28;20433;-91
2022/06/24 01:57:41;;;;;;;15.70;9.27;;;16.20;99.90;;;;;;5040847;28;20030;-92
2022/06/24 02:00:10;;;;;;;12.27;8.30;;;16.10;99.90;;;;;;5038351;28;20049;-91
2022/06/24 02:02:37;;;;;;;14.77;9.63;;;16.10;99.90;;;;;;5038307;28;20025;-91
2022/06/24 02:05:11;;;;;;;18.27;9.93;;;16.10;99.90;;;;;;5040218;28;20029;-93
2022/06/24 02:07:37;;;;;;;10.93;9.05;;;16.10;99.90;;;;;;5040743;28;20102;-91
2022/06/24 02:15:45;;;;;;;21.17;14.20;;;16.20;99.90;;;;;;5038534;28;20037;-92
2022/06/24 02:18:11;;;;;;;28.77;15.75;;;16.20;99.90;;;;;;5039797;28;20042;-91
2022/06/24 02:20:38;;;;;;;21.80;16.27;;;16.30;99.90;;;;;;5039154;28;20113;-92
2022/06/24 02:23:04;;;;;;;38.45;16.23;;;16.30;99.90;;;;;;5039745;28;20029;-91
2022/06/24 02:25:30;;;;;;;24.77;17.23;;;16.30;99.90;;;;;;5022794;28;20030;-91
2022/06/24 02:28:38;;;;;;;26.02;16.40;;;16.30;99.90;;;;;;5021068;28;20049;-91
2022/06/24 02:31:09;;;;;;;21.83;13.25;;;16.30;99.90;;;;;;5044660;28;20106;-93
2022/06/24 02:33:36;;;;;;;22.75;13.63;;;16.30;99.90;;;;;;5038557;28;20034;-92
2022/06/24 02:36:03;;;;;;;31.20;17.75;;;16.10;99.90;;;;;;5043245;28;20402;-92
2022/06/24 02:38:36;;;;;;;28.05;18.05;;;16.20;99.90;;;;;;5039953;28;20117;-92
2022/06/24 02:41:05;;;;;;;22.50;14.25;;;16.10;99.90;;;;;;5042969;28;20101;-93
2022/06/24 02:43:34;;;;;;;19.40;13.05;;;16.10;99.90;;;;;;5025582;28;20026;-92
2022/06/24 02:46:17;;;;;;;20.38;12.30;;;16.10;99.90;;;;;;5035210;28;20030;-92
2022/06/24 02:48:44;;;;;;;23.52;10.40;;;16.00;99.90;;;;;;5004284;28;20042;-91
2022/06/24 02:51:12;;;;;;;25.27;12.20;;;16.00;99.90;;;;;;5031912;28;20072;-91
2022/06/24 02:53:41;;;;;;;19.02;10.75;;;16.00;99.90;;;;;;5031939;28;20081;-91
2022/06/24 02:56:16;;;;;;;20.08;11.52;;;15.90;99.90;;;;;;5030967;28;20025;-92
2022/06/24 02:58:42;;;;;;;17.27;10.23;;;15.90;99.90;;;;;;5038499;28;20084;-92
2022/06/24 03:01:08;;;;;;;14.13;9.10;;;15.80;99.90;;;;;;5034985;28;20036;-92
2022/06/24 03:03:34;;;;;;;16.05;9.07;;;15.90;99.90;;;;;;5017779;28;20030;-91
2022/06/24 03:06:11;;;;;;;19.95;7.93;;;15.80;99.90;;;;;;5014678;28;20045;-92
2022/06/24 03:08:37;;;;;;;12.95;8.77;;;15.80;99.90;;;;;;5015840;28;20486;-91
2022/06/24 03:11:03;;;;;;;14.60;8.98;;;15.80;99.90;;;;;;5015306;28;20057;-90
2022/06/24 03:13:30;;;;;;;18.83;11.27;;;15.80;99.90;;;;;;5032604;28;20132;-91
2022/06/24 03:16:04;;;;;;;22.13;10.98;;;15.80;99.90;;;;;;5029014;28;20450;-91
2022/06/24 03:18:29;;;;;;;21.73;11.75;;;15.80;99.90;;;;;;5030167;28;20597;-91
2022/06/24 03:20:55;;;;;;;29.98;15.75;;;15.90;99.90;;;;;;5031230;28;20034;-90
2022/06/24 03:23:21;;;;;;;32.58;15.48;;;15.90;99.90;;;;;;5014268;28;20119;-91
2022/06/24 03:25:47;;;;;;;37.60;15.73;;;16.00;99.90;;;;;;5030245;28;20038;-91
2022/06/24 03:28:23;;;;;;;39.58;16.98;;;16.00;99.90;;;;;;5014228;28;20033;-91
2022/06/24 03:30:49;;;;;;;41.35;17.55;;;16.00;99.90;;;;;;5029887;28;20129;-93
2022/06/24 03:33:15;;;;;;;35.75;17.77;;;16.10;99.90;;;;;;5031050;28;20092;-91
2022/06/24 03:35:43;;;;;;;37.75;16.67;;;16.20;99.90;;;;;;4998419;28;20038;-92
2022/06/24 03:38:09;;;;;;;27.70;15.45;;;16.20;99.90;;;;;;5029763;28;20030;-91
2022/06/24 03:40:44;;;;;;;35.15;17.48;;;16.20;99.90;;;;;;5030784;28;20041;-91
2022/06/24 03:43:11;;;;;;;30.55;16.35;;;16.20;99.90;;;;;;5029986;28;20038;-91
2022/06/24 03:45:37;;;;;;;28.33;15.95;;;16.20;99.90;;;;;;4997794;28;20030;-91
2022/06/24 03:48:04;;;;;;;30.85;15.57;;;16.30;99.90;;;;;;5030134;28;20137;-91
2022/06/24 03:50:37;;;;;;;105.93;17.70;;;16.30;99.90;;;;;;5030231;28;20034;-90
2022/06/24 03:53:03;;;;;;;30.40;14.45;;;16.30;99.90;;;;;;5025250;28;20034;-91
2022/06/24 03:55:29;;;;;;;26.20;12.90;;;16.30;99.90;;;;;;5029791;28;20044;-92
2022/06/24 03:57:56;;;;;;;33.50;13.35;;;16.30;99.90;;;;;;5028718;28;20037;-92
2022/06/24 04:00:22;;;;;;;50.00;14.15;;;16.30;99.90;;;;;;5031077;28;20030;-91
2022/06/24 04:03:00;;;;;;;42.05;14.18;;;16.30;99.90;;;;;;5031330;28;20034;-91
2022/06/24 04:05:51;;;;;;;47.35;13.60;;;16.30;99.90;;;;;;5015308;28;20513;-91
2022/06/24 04:08:18;;;;;;;39.40;12.93;;;16.30;99.90;;;;;;5029922;28;20033;-91
2022/06/24 04:10:44;;;;;;;31.00;12.15;;;16.40;99.90;;;;;;5042643;28;20118;-91
2022/06/24 04:13:10;;;;;;;32.67;11.50;;;16.40;99.90;;;;;;5048633;28;20018;-91
2022/06/24 04:15:55;;;;;;;19.67;10.80;;;16.50;99.90;;;;;;5062155;22;20050;-89
2022/06/24 04:18:21;;;;;;;22.30;11.27;;;16.50;99.90;;;;;;5033314;28;20036;-88
2022/06/24 04:20:47;;;;;;;31.98;10.57;;;16.50;99.90;;;;;;5033215;28;20030;-89
2022/06/24 04:23:12;;;;;;;19.15;9.95;;;16.50;99.90;;;;;;5032895;28;20496;-89
2022/06/24 04:25:38;;;;;;;18.85;10.20;;;16.50;99.90;;;;;;5033021;28;20032;-89
2022/06/24 04:28:04;;;;;;;19.45;9.07;;;16.50;99.90;;;;;;5033146;28;20038;-88
2022/06/24 04:30:30;;;;;;;16.67;9.10;;;16.40;99.90;;;;;;5033373;28;20135;-89
2022/06/24 04:32:55;;;;;;;27.08;10.40;;;16.40;99.90;;;;;;5016735;28;20034;-89
2022/06/24 04:35:21;;;;;;;24.95;9.98;;;16.40;99.90;;;;;;5034492;28;20468;-89
2022/06/24 04:37:47;;;;;;;62.45;10.68;;;16.40;99.90;;;;;;5017091;28;20033;-89
2022/06/24 04:40:13;;;;;;;12.73;8.80;;;16.40;99.90;;;;;;5034403;28;20037;-90
2022/06/24 04:42:40;;;;;;;24.95;8.77;;;16.40;99.90;;;;;;5017003;28;20033;-88
2022/06/24 04:45:07;;;;;;;22.65;8.35;;;16.40;99.90;;;;;;5033682;28;20028;-89
2022/06/24 04:47:32;;;;;;;30.58;9.40;;;16.40;99.90;;;;;;5015334;28;20112;-89
2022/06/24 04:49:58;;;;;;;18.40;9.90;;;16.20;99.90;;;;;;5015256;28;20083;-88
2022/06/24 04:52:24;;;;;;;34.70;10.80;;;16.30;99.90;;;;;;5016915;28;20022;-88
2022/06/24 04:54:50;;;;;;;22.20;9.20;;;16.40;99.90;;;;;;5033254;28;20022;-89
2022/06/24 04:57:16;;;;;;;16.00;9.13;;;16.60;99.90;;;;;;5033092;28;20063;-89
2022/06/24 04:59:42;;;;;;;13.48;8.40;;;16.70;99.90;;;;;;5033611;28;20378;-89
2022/06/24 05:02:08;;;;;;;16.45;8.88;;;16.60;99.90;;;;;;5016971;28;20052;-90
2022/06/24 05:04:35;;;;;;;13.85;9.75;;;16.50;99.90;;;;;;5032372;28;20564;-90
2022/06/24 05:07:02;;;;;;;11.23;8.98;;;16.70;99.90;;;;;;5032814;28;20030;-89
2022/06/24 05:09:28;;;;;;;13.55;8.00;;;16.70;99.90;;;;;;5032869;28;20029;-90
2022/06/24 05:12:06;;;;;;;11.85;7.75;;;16.70;99.90;;;;;;5016307;28;20038;-89
2022/06/24 05:14:32;;;;;;;10.57;7.38;;;16.80;99.90;;;;;;5016010;28;20393;-91
2022/06/24 05:16:58;;;;;;;12.15;8.38;;;16.80;99.90;;;;;;5012687;28;20065;-89
2022/06/24 05:20:01;;;;;;;18.60;8.82;;;16.80;99.90;;;;;;5016521;28;20487;-89
2022/06/24 05:22:27;;;;;;;12.85;7.40;;;16.90;99.90;;;;;;5016228;28;20044;-90
2022/06/24 05:24:53;;;;;;;14.20;8.15;;;16.90;99.90;;;;;;5015904;28;20049;-89
2022/06/24 05:27:37;;;;;;;13.93;9.23;;;16.90;99.90;;;;;;5015938;28;20095;-89
2022/06/24 05:30:03;;;;;;;18.75;9.32;;;16.80;99.90;;;;;;5016291;28;20618;-89
2022/06/24 05:32:29;;;;;;;15.73;10.07;;;16.90;99.90;;;;;;5032294;28;20465;-90
2022/06/24 05:34:56;;;;;;;16.15;9.88;;;17.00;99.90;;;;;;5048160;28;20033;-89
2022/06/24 05:37:21;;;;;;;18.92;10.93;;;17.00;99.90;;;;;;5048542;28;20022;-89
2022/06/24 05:39:47;;;;;;;20.48;9.68;;;17.00;99.90;;;;;;5031610;28;20388;-90
2022/06/24 05:42:13;;;;;;;18.15;8.80;;;17.10;99.90;;;;;;5015867;28;20477;-90
2022/06/24 05:44:39;;;;;;;19.60;9.82;;;17.20;99.90;;;;;;5029628;28;20026;-89
2022/06/24 05:47:04;;;;;;;15.40;9.07;;;17.30;99.90;;;;;;5032350;28;20049;-90
2022/06/24 05:49:30;;;;;;;18.42;9.77;;;17.50;99.90;;;;;;5032568;28;20025;-91
2022/06/24 05:51:56;;;;;;;16.98;8.00;;;17.90;99.90;;;;;;5032446;28;20032;-89
2022/06/24 05:57:06;;;;;;;14.32;6.25;;;18.00;99.90;;;;;;5031860;28;20053;-90
2022/06/24 05:59:32;;;;;;;12.65;6.10;;;18.10;99.90;;;;;;5032362;28;20018;-91
2022/06/24 06:01:58;;;;;;;13.82;5.80;;;18.40;99.90;;;;;;5015443;28;20905;-90
2022/06/24 06:04:24;;;;;;;15.95;6.38;;;18.60;99.90;;;;;;5035257;28;20030;-90
2022/06/24 06:06:51;;;;;;;15.30;6.80;;;18.90;99.90;;;;;;5018527;28;20029;-90
2022/06/24 06:09:17;;;;;;;26.58;7.07;;;19.20;99.90;;;;;;5035092;28;20034;-88
2022/06/24 06:11:42;;;;;;;11.43;6.03;;;19.30;99.90;;;;;;5035026;28;20060;-89
2022/06/24 06:14:08;;;;;;;14.13;7.03;;;19.20;99.90;;;;;;5017626;28;20083;-89
2022/06/24 06:16:34;;;;;;;16.90;7.32;;;19.50;99.90;;;;;;5031311;28;20369;-88
2022/06/24 06:19:00;;;;;;;25.13;7.45;;;19.20;99.90;;;;;;5018657;28;20021;-89
2022/06/24 06:21:25;;;;;;;16.38;6.80;;;18.90;99.90;;;;;;5035034;28;20116;-88
2022/06/24 06:23:51;;;;;;;14.75;6.90;;;18.60;99.90;;;;;;5018040;28;20090;-88
2022/06/24 06:26:17;;;;;;;18.42;8.52;;;18.40;99.90;;;;;;5034677;28;20030;-90
2022/06/24 06:28:42;;;;;;;17.77;8.43;;;18.30;99.90;;;;;;5034542;28;20555;-89
2022/06/24 06:31:09;;;;;;;21.17;8.02;;;18.10;99.90;;;;;;5034191;28;20033;-91
2022/06/24 06:33:35;;;;;;;14.00;6.70;;;18.20;99.90;;;;;;5033866;28;20041;-89
2022/06/24 06:36:12;;;;;;;18.00;6.50;;;18.20;99.90;;;;;;5033736;28;20026;-89
2022/06/24 06:38:38;;;;;;;15.82;6.82;;;18.30;99.90;;;;;;5014452;28;20034;-88
2022/06/24 06:41:09;;;;;;;20.83;6.28;;;18.20;99.90;;;;;;5034372;28;20124;-90
2022/06/24 06:43:35;;;;;;;;;;;18.10;99.90;;;;;;5034758;28;20072;-89
2022/06/24 06:46:01;;;;;;;13.70;7.25;;;17.90;99.90;;;;;;5018239;28;20407;-88
2022/06/24 06:49:16;;;;;;;13.88;6.22;;;17.90;99.90;;;;;;5017591;28;20116;-89
2022/06/24 06:51:42;;;;;;;11.18;6.30;;;18.10;99.90;;;;;;5034380;28;20079;-89
2022/06/24 06:54:08;;;;;;;18.88;7.07;;;18.20;99.90;;;;;;5034557;28;20844;-89
2022/06/24 06:56:33;;;;;;;14.07;7.10;;;18.10;99.90;;;;;;5034007;28;20048;-89
2022/06/24 06:59:00;;;;;;;18.40;6.45;;;18.20;99.90;;;;;;5017779;28;20030;-88
2022/06/24 07:01:26;;;;;;;10.13;5.68;;;18.60;99.90;;;;;;5034142;28;20033;-88
2022/06/24 07:03:52;;;;;;;10.95;5.90;;;19.00;99.90;;;;;;5018071;28;20025;-88
2022/06/24 07:06:17;;;;;;;13.27;5.93;;;19.10;99.90;;;;;;5034757;28;20068;-89
2022/06/24 07:08:43;;;;;;;13.02;5.85;;;19.30;99.90;;;;;;5034972;28;20191;-89
2022/06/24 07:11:09;;;;;;;15.85;5.75;;;19.10;99.90;;;;;;5018256;28;20028;-89
2022/06/24 07:13:35;;;;;;;13.00;5.53;;;18.70;99.90;;;;;;5017775;28;20021;-88
2022/06/24 07:16:00;;;;;;;10.27;5.97;;;18.60;99.90;;;;;;5017781;28;20465;-89
2022/06/24 07:18:26;;;;;;;13.25;6.10;;;18.60;99.90;;;;;;5029442;28;20041;-89
2022/06/24 07:20:52;;;;;;;15.95;6.13;;;18.80;99.90;;;;;;5033297;28;20116;-88
2022/06/24 07:23:18;;;;;;;5.95;4.20;;;19.30;99.90;;;;;;5015891;28;20044;-89
2022/06/24 07:25:43;;;;;;;9.77;3.75;;;20.50;99.90;;;;;;5033979;28;20037;-89
2022/06/24 07:28:09;;;;;;;8.20;3.15;;;22.10;99.90;;;;;;5033132;28;20057;-88
2022/06/24 07:30:35;;;;;;;7.60;2.67;;;24.00;99.90;;;;;;5032935;28;20030;-88
2022/06/24 07:33:01;;;;;;;8.23;2.50;;;25.10;99.90;;;;;;5013159;28;20032;-87
2022/06/24 07:35:26;;;;;;;4.28;2.33;;;25.40;99.90;;;;;;5032312;28;20083;-88
2022/06/24 07:37:52;;;;;;;6.28;2.40;;;25.50;99.90;;;;;;5016432;28;20029;-88
2022/06/24 07:40:18;;;;;;;3.72;2.17;;;25.50;99.90;;;;;;5018199;28;20499;-91
2022/06/24 07:42:44;;;;;;;8.00;3.55;;;24.80;99.90;;;;;;5016359;28;20074;-88
2022/06/24 07:45:10;;;;;;;7.68;2.95;;;23.20;99.90;;;;;;5032647;28;20034;-87
2022/06/24 07:47:36;;;;;;;6.35;3.13;;;22.00;99.90;;;;;;5016272;28;20396;-89
2022/06/24 07:50:06;;;;;;;9.88;3.55;;;21.00;99.90;;;;;;5032580;28;20039;-86
2022/06/24 07:52:32;;;;;;;7.70;3.33;;;20.20;99.90;;;;;;5032520;28;20809;-87
2022/06/24 07:57:42;;;;;;;7.88;3.17;;;20.10;99.90;;;;;;5032168;28;20045;-86
2022/06/24 08:00:52;;;;;;;5.03;3.08;;;20.30;99.90;;;;;;5032726;28;20026;-86
2022/06/24 08:03:17;;;;;;;9.60;2.72;;;21.50;99.90;;;;;;5032301;28;20033;-88
2022/06/24 08:05:43;;;;;;;5.30;3.50;;;22.90;99.90;;;;;;5016407;28;20087;-88
2022/06/24 08:08:09;;;;;;;10.35;2.78;;;22.70;99.90;;;;;;5016225;28;20480;-87
2022/06/24 08:10:36;;;;;;;10.60;2.75;;;22.70;99.90;;;;;;5033027;28;20033;-87
2022/06/24 08:13:02;;;;;;;8.05;2.90;;;22.40;99.90;;;;;;5032180;28;20033;-88
2022/06/24 08:15:28;;;;;;;5.32;3.50;;;22.50;99.90;;;;;;5032013;28;20041;-88
2022/06/24 08:17:53;;;;;;;8.18;2.75;;;23.10;99.90;;;;;;5032657;28;20124;-87
2022/06/24 08:20:19;;;;;;;13.65;2.90;;;23.30;99.90;;;;;;5016004;28;20026;-87
2022/06/24 08:22:45;;;;;;;10.48;2.92;;;22.90;99.90;;;;;;5015829;28;20025;-87
2022/06/24 08:25:11;;;;;;;7.63;3.17;;;23.20;99.90;;;;;;5027210;28;20068;-87
2022/06/24 08:27:43;;;;;;;7.15;2.90;;;23.20;99.90;;;;;;5015687;28;20071;-88
2022/06/24 08:30:09;;;;;;;6.75;2.67;;;23.90;99.90;;;;;;5030038;28;20060;-87
2022/06/24 08:32:35;;;;;;;3.65;2.47;;;23.90;99.90;;;;;;5029902;28;20083;-88
2022/06/24 08:35:01;;;;;;;8.05;2.70;;;23.60;99.90;;;;;;5015543;28;20033;-88
2022/06/24 08:37:26;;;;;;;5.82;2.90;;;23.40;99.90;;;;;;5031579;28;20045;-88
2022/06/24 08:39:52;;;;;;;10.38;3.25;;;23.00;99.90;;;;;;5015434;28;20052;-87
2022/06/24 08:42:53;;;;;;;8.93;3.33;;;22.30;99.90;;;;;;5015585;28;20037;-88
2022/06/24 08:49:06;;;;;;;9.55;3.38;;;21.90;99.90;;;;;;5033861;28;20290;-88
2022/06/24 08:51:34;;;;;;;11.30;3.50;;;21.70;99.90;;;;;;5032586;28;20036;-86
2022/06/24 08:54:02;;;;;;;5.72;3.60;;;21.20;99.90;;;;;;5032009;28;20512;-88
2022/06/24 08:56:29;;;;;;;8.88;3.75;;;21.30;99.90;;;;;;5032126;28;20033;-87
2022/06/24 08:58:54;;;;;;;6.05;3.70;;;21.90;99.90;;;;;;5032801;28;20057;-87
2022/06/24 09:01:21;;;;;;;5.53;3.50;;;22.10;99.90;;;;;;5015222;28;20060;-87
2022/06/24 09:03:48;;;;;;;5.15;3.50;;;22.10;99.90;;;;;;5031161;28;20091;-88
2022/06/24 09:06:15;;;;;;;7.75;3.53;;;22.20;99.90;;;;;;5015204;28;20041;-87
2022/06/24 09:08:48;;;;;;;11.98;3.42;;;22.10;99.90;;;;;;5031538;28;20056;-88
2022/06/24 09:11:14;;;;;;;5.05;3.08;;;22.10;99.90;;;;;;5031903;28;20030;-87
2022/06/24 09:13:48;;;;;;;5.32;3.00;;;21.70;99.90;;;;;;5014521;28;20408;-87
2022/06/24 09:16:17;;;;;;;6.10;3.38;;;21.80;99.90;;;;;;5031119;28;20064;-88
2022/06/24 09:18:53;;;;;;;6.18;3.35;;;22.30;99.90;;;;;;5031607;28;20901;-87
2022/06/24 09:21:24;;;;;;;7.65;3.20;;;22.50;99.90;;;;;;5031182;28;20049;-87
2022/06/24 09:23:55;;;;;;;6.65;2.80;;;22.90;99.90;;;;;;5031149;28;20056;-87
2022/06/24 09:26:37;;;;;;;4.78;2.78;;;23.50;99.90;;;;;;5031530;28;20059;-87
2022/06/24 09:29:05;;;;;;;7.93;2.70;;;23.60;99.90;;;;;;5010827;28;20033;-87
2022/06/24 09:31:32;;;;;;;5.30;2.53;;;23.40;99.90;;;;;;5030903;28;20030;-88
2022/06/24 09:34:05;;;;;;;6.30;2.70;;;23.70;99.90;;;;;;5028321;28;20728;-87
2022/06/24 09:36:33;;;;;;;10.90;3.10;;;25.10;99.90;;;;;;5032465;28;20029;-88
2022/06/24 09:39:00;;;;;;;9.65;2.88;;;26.80;99.90;;;;;;5052176;28;20029;-89
2022/06/24 09:41:27;;;;;;;6.63;2.25;;;28.30;99.90;;;;;;5019426;28;20025;-90
2022/06/24 09:43:53;;;;;;;5.20;2.63;;;28.20;99.90;;;;;;5035435;28;20033;-89
2022/06/24 09:46:23;;;;;;;8.75;2.30;;;28.70;99.90;;;;;;5034849;28;20057;-88
2022/06/24 09:48:51;;;;;;;5.15;2.47;;;28.40;99.90;;;;;;5035299;28;20052;-89
2022/06/24 09:51:45;;;;;;;8.30;2.70;;;28.90;99.90;;;;;;5035473;28;20041;-88
2022/06/24 09:54:13;;;;;;;7.57;2.72;;;27.60;99.90;;;;;;5035298;28;20447;-88
2022/06/24 09:56:39;;;;;;;6.78;2.65;;;26.00;99.90;;;;;;5035417;28;20037;-88
2022/06/24 10:01:50;;;;;;;5.03;2.13;;;25.80;99.90;;;;;;5035201;28;20090;-89
2022/06/24 10:04:20;;;;;;;4.22;2.70;;;26.80;99.90;;;;;;5018701;28;20025;-89
2022/06/24 10:06:48;;;;;;;2.95;2.10;;;27.70;99.90;;;;;;5035110;28;20033;-90
2022/06/24 10:09:18;;;;;;;6.18;2.10;;;27.70;99.90;;;;;;5051532;28;20037;-88
2022/06/24 10:11:47;;;;;;;9.40;3.10;;;27.30;99.90;;;;;;5034723;28;20033;-90
2022/06/24 10:14:12;;;;;;;4.80;2.80;;;26.20;99.90;;;;;;5034038;28;20033;-88
2022/06/24 10:16:41;;;;;;;4.05;2.30;;;25.70;99.90;;;;;;5018789;28;20366;-87
2022/06/24 10:19:12;;;;;;;4.28;2.30;;;26.10;99.90;;;;;;5034722;28;20481;-88
2022/06/24 10:21:39;;;;;;;6.30;2.67;;;25.80;99.90;;;;;;5034957;28;20389;-86
2022/06/24 10:24:15;;;;;;;7.80;2.50;;;25.10;99.90;;;;;;5034299;28;20397;-88
2022/06/24 10:26:45;;;;;;;8.15;2.78;;;24.50;99.90;;;;;;5034421;28;20034;-88
2022/06/24 10:29:14;;;;;;;7.85;2.75;;;24.10;99.90;;;;;;5032727;28;20037;-87
2022/06/24 10:31:42;;;;;;;11.77;4.15;;;23.70;99.90;;;;;;5033587;28;20504;-87
2022/06/24 10:34:09;;;;;;;4.57;2.90;;;23.50;99.90;;;;;;5028391;28;20508;-87
2022/06/24 10:36:35;;;;;;;5.40;2.58;;;23.40;99.90;;;;;;5034272;28;20057;-86
2022/06/24 10:39:19;;;;;;;5.65;2.72;;;23.30;99.90;;;;;;5033707;28;20038;-87
2022/06/24 10:42:30;;;;;;;8.48;3.08;;;23.20;99.90;;;;;;5033929;28;20029;-87
2022/06/24 10:45:01;;;;;;;5.45;2.83;;;22.80;99.90;;;;;;5033647;28;20079;-87
2022/06/24 10:47:46;;;;;;;5.30;3.00;;;22.50;99.90;;;;;;5033746;28;20386;-88
2022/06/24 10:50:13;;;;;;;5.10;2.85;;;22.30;99.90;;;;;;5032990;28;20042;-88
2022/06/24 10:53:02;;;;;;;7.30;3.15;;;22.40;99.90;;;;;;5033153;28;20860;-87
2022/06/24 10:55:31;;;;;;;6.60;2.63;;;22.50;99.90;;;;;;5033864;28;20080;-87
2022/06/24 10:58:09;;;;;;;6.05;2.83;;;22.80;99.90;;;;;;5033862;28;20133;-87
2022/06/24 11:00:39;;;;;;;5.53;2.90;;;23.10;99.90;;;;;;5017312;28;20041;-88
2022/06/24 11:03:04;;;;;;;8.23;3.08;;;23.50;99.90;;;;;;5017084;28;20056;-87
2022/06/24 11:05:35;;;;;;;3.35;2.40;;;24.20;99.90;;;;;;5033891;28;20507;-88
2022/06/24 11:08:02;;;;;;;7.95;2.78;;;25.00;99.90;;;;;;5034393;28;20033;-87
2022/06/24 11:10:31;;;;;;;6.22;2.40;;;24.60;99.90;;;;;;5033734;28;20498;-87
2022/06/24 11:12:58;;;;;;;5.25;2.53;;;24.30;99.90;;;;;;5033416;28;20044;-87
2022/06/24 11:15:36;;;;;;;4.00;2.55;;;24.50;99.90;;;;;;5034907;28;20128;-89
2022/06/24 11:18:09;;;;;;;8.65;2.78;;;24.80;99.90;;;;;;5033497;28;20091;-89
2022/06/24 11:20:38;;;;;;;9.95;3.20;;;25.00;99.90;;;;;;5033644;28;20118;-89
2022/06/24 11:23:12;;;;;;;7.78;2.65;;;25.60;99.90;;;;;;5033976;28;20033;-88
2022/06/24 11:25:39;;;;;;;6.75;2.95;;;26.50;99.90;;;;;;5034011;28;20710;-89
2022/06/24 11:28:16;;;;;;;7.88;2.25;;;27.60;99.90;;;;;;5033115;28;20128;-89
2022/06/24 11:30:41;;;;;;;5.18;2.15;;;27.80;99.90;;;;;;5033347;28;20029;-88
2022/06/24 11:33:23;;;;;;;9.73;2.15;;;27.70;99.90;;;;;;5016952;28;20032;-87
2022/06/24 11:35:50;;;;;;;6.65;2.65;;;28.20;99.90;;;;;;5011272;28;20037;-88
2022/06/24 11:38:19;;;;;;;4.82;2.13;;;28.50;99.90;;;;;;5030726;28;20029;-87
2022/06/24 11:40:46;;;;;;;9.88;2.67;;;27.80;99.90;;;;;;5032324;28;20025;-87
2022/06/24 11:43:13;;;;;;;7.07;2.53;;;26.30;99.90;;;;;;5032434;28;20485;-87
2022/06/24 11:45:44;;;;;;;5.95;2.30;;;25.40;99.90;;;;;;5032672;28;20061;-87
2022/06/24 11:48:31;;;;;;;5.55;2.50;;;24.70;99.90;;;;;;5032704;28;20481;-87
2022/06/24 11:50:57;;;;;;;3.65;2.42;;;24.60;99.90;;;;;;5015867;28;20069;-88
2022/06/24 11:53:24;;;;;;;7.47;2.60;;;24.60;99.90;;;;;;5032079;28;20069;-87
2022/06/24 11:55:50;;;;;;;4.80;2.40;;;24.30;99.90;;;;;;5032649;28;20049;-87
2022/06/24 11:58:19;;;;;;;4.60;2.47;;;24.50;99.90;;;;;;5032309;28;20489;-87
2022/06/24 12:00:46;;;;;;;3.58;2.80;;;24.90;99.90;;;;;;5031537;28;20029;-87
2022/06/24 12:03:12;;;;;;;9.27;2.75;;;25.40;99.90;;;;;;5031631;28;20060;-87
2022/06/24 12:05:43;;;;;;;4.05;2.17;;;25.80;99.90;;;;;;5032229;28;20040;-87
2022/06/24 12:08:10;;;;;;;2.00;1.77;;;25.80;99.90;;;;;;5032620;28;20036;-87
2022/06/24 12:10:47;;;;;;;3.70;1.77;;;25.70;99.90;;;;;;5032628;28;20120;-88
2022/06/24 12:13:27;;;;;;;5.43;2.13;;;25.80;99.90;;;;;;5032527;28;20124;-90
2022/06/24 12:15:54;;;;;;;6.65;2.28;;;25.30;99.90;;;;;;5032529;28;20041;-88
2022/06/24 12:18:24;;;;;;;3.90;2.08;;;25.10;99.90;;;;;;5032026;28;20025;-88
2022/06/24 12:21:07;;;;;;;7.00;3.72;;;24.90;99.90;;;;;;5032021;28;20435;-88
2022/06/24 12:23:42;;;;;;;4.93;2.45;;;24.60;99.90;;;;;;5031996;28;20369;-87
2022/06/24 12:26:19;;;;;;;2.53;2.28;;;24.60;99.90;;;;;;5032501;28;20053;-87
2022/06/24 12:28:57;;;;;;;5.43;1.83;;;24.90;99.90;;;;;;5032503;28;20037;-88
2022/06/24 12:31:23;;;;;;;11.70;2.67;;;25.30;99.90;;;;;;5031861;28;20039;-87
2022/06/24 12:33:54;;;;;;;3.53;2.03;;;26.10;99.90;;;;;;5033218;28;20466;-87
2022/06/24 12:36:33;;;;;;;8.35;2.67;;;26.60;99.90;;;;;;5031562;28;20088;-89
2022/06/24 12:39:26;;;;;;;6.57;2.38;;;26.40;99.90;;;;;;5027366;28;20045;-88
2022/06/24 12:41:51;;;;;;;6.43;2.17;;;26.10;99.90;;;;;;5031911;28;20072;-88
2022/06/24 12:44:17;;;;;;;4.70;1.95;;;26.10;99.90;;;;;;5031730;28;20033;-88
2022/06/24 12:52:29;;;;;;;3.67;2.00;;;27.80;99.90;;;;;;5032028;28;20087;-88
2022/06/24 12:54:55;;;;;;;3.78;2.20;;;27.20;99.90;;;;;;5015679;28;20038;-88
2022/06/24 12:57:20;;;;;;;6.82;1.90;;;26.30;99.90;;;;;;5031702;28;20100;-87
2022/06/24 12:59:46;;;;;;;2.50;2.08;;;26.20;99.90;;;;;;5031966;28;20033;-88
2022/06/24 13:02:13;;;;;;;3.30;2.10;;;26.40;99.90;;;;;;5015690;28;20026;-88
2022/06/24 13:04:39;;;;;;;3.90;1.92;;;27.40;99.90;;;;;;5032153;28;20060;-88
2022/06/24 13:07:06;;;;;;;7.70;2.35;;;27.60;99.90;;;;;;5015188;28;20061;-88
2022/06/24 13:09:32;;;;;;;4.63;1.98;;;27.80;99.90;;;;;;5015535;28;20068;-90
2022/06/24 13:11:58;;;;;;;2.08;1.58;;;27.70;99.90;;;;;;5033233;28;20068;-87
2022/06/24 13:14:23;;;;;;;4.82;2.20;;;28.00;99.90;;;;;;5037078;28;20087;-88
2022/06/24 13:16:49;;;;;;;4.95;2.00;;;29.10;99.90;;;;;;5019272;28;20509;-88